sensor_id;sensor_type;location;lat;lon;timestamp;pressure;altitude;pressure_sealevel;temperature;humidity
3178;BME280;38141;42.666;23.344;2023-01-26T00:01:17;64974.94;;;-144.03;100.00
3178;BME280;38141;42.666;23.344;2023-01-26T00:03:45;64974.94;;;-144.03;100.00
3178;BME280;38141;42.666;23.344;2023-01-26T00:06:13;64974.94;;;-144.03;100.00
3178;BME280;38141;42.666;23.344;2023-01-26T00:08:42;64974.94;;;-144.03;100.00
3178;BME280;38141;42.666;23.344;2023-01-26T00:11:11;64974.94;;;-144.03;100.00
3178;BME280;38141;42.666;23.344;2023-01-26T00:13:40;64974.94;;;-144.03;100.00
3178;BME280;38141;42.666;23.344;2023-01-26T00:16:08;64974.94;;;-144.03;100.00
3178;BME280;38141;42.666;23.344;2023-01-26T00:18:37;64974.94;;;-144.03;100.00
3178;BME280;38141;42.666;23.344;2023-01-26T00:21:05;64974.94;;;-144.03;100.00
3178;BME280;38141;42.666;23.344;2023-01-26T00:23:35;64974.94;;;-144.03;100.00
3178;BME280;38141;42.666;23.344;2023-01-26T00:29:11;64974.94;;;-144.03;100.00
3178;BME280;38141;42.666;23.344;2023-01-26T00:31:39;64974.94;;;-144.03;100.00
3178;BME280;38141;42.666;23.344;2023-01-26T00:34:06;64974.94;;;-144.03;100.00
3178;BME280;38141;42.666;23.344;2023-01-26T00:36:34;64974.94;;;-144.03;100.00
3178;BME280;38141;42.666;23.344;2023-01-26T00:45:53;64974.94;;;-144.03;100.00
3178;BME280;38141;42.666;23.344;2023-01-26T00:48:20;64974.94;;;-144.03;100.00
3178;BME280;38141;42.666;23.344;2023-01-26T00:54:24;64974.94;;;-144.03;100.00
3178;BME280;38141;42.666;23.344;2023-01-26T00:56:55;64974.94;;;-144.03;100.00
3178;BME280;38141;42.666;23.344;2023-01-26T00:59:22;64974.94;;;-144.03;100.00
3178;BME280;38141;42.666;23.344;2023-01-26T01:01:53;64974.94;;;-144.03;100.00
3178;BME280;38141;42.666;23.344;2023-01-26T01:04:21;64974.94;;;-144.03;100.00
3178;BME280;38141;42.666;23.344;2023-01-26T01:06:51;64974.94;;;-144.03;100.00
3178;BME280;38141;42.666;23.344;2023-01-26T01:12:48;64974.94;;;-144.03;100.00
3178;BME280;38141;42.666;23.344;2023-01-26T01:15:20;64974.94;;;-144.03;100.00
3178;BME280;38141;42.666;23.344;2023-01-26T01:17:51;64974.94;;;-144.03;100.00
3178;BME280;38141;42.666;23.344;2023-01-26T01:20:30;64974.94;;;-144.03;100.00
3178;BME280;38141;42.666;23.344;2023-01-26T01:22:58;64974.94;;;-144.03;100.00
3178;BME280;38141;42.666;23.344;2023-01-26T01:25:28;64974.94;;;-144.03;100.00
3178;BME280;38141;42.666;23.344;2023-01-26T01:27:56;64974.94;;;-144.03;100.00
3178;BME280;38141;42.666;23.344;2023-01-26T01:30:23;64974.94;;;-144.03;100.00
3178;BME280;38141;42.666;23.344;2023-01-26T01:32:57;64974.94;;;-144.03;100.00
3178;BME280;38141;42.666;23.344;2023-01-26T01:35:24;64974.94;;;-144.03;100.00
3178;BME280;38141;42.666;23.344;2023-01-26T01:37:52;64974.94;;;-144.03;100.00
3178;BME280;38141;42.666;23.344;2023-01-26T01:40:19;64974.94;;;-144.03;100.00
3178;BME280;38141;42.666;23.344;2023-01-26T01:42:48;64974.94;;;-144.03;100.00
3178;BME280;38141;42.666;23.344;2023-01-26T01:45:40;64974.94;;;-144.03;100.00
3178;BME280;38141;42.666;23.344;2023-01-26T01:51:39;64974.94;;;-144.03;100.00
3178;BME280;38141;42.666;23.344;2023-01-26T01:54:09;64974.94;;;-144.03;100.00
3178;BME280;38141;42.666;23.344;2023-01-26T01:56:43;64974.94;;;-144.03;100.00
3178;BME280;38141;42.666;23.344;2023-01-26T01:59:28;64974.94;;;-144.03;100.00
3178;BME280;38141;42.666;23.344;2023-01-26T02:01:59;64974.94;;;-144.03;100.00
3178;BME280;38141;42.666;23.344;2023-01-26T02:04:27;64974.94;;;-144.03;100.00
3178;BME280;38141;42.666;23.344;2023-01-26T02:07:28;64974.94;;;-144.03;100.00
3178;BME280;38141;42.666;23.344;2023-01-26T02:10:16;64974.94;;;-144.03;100.00
3178;BME280;38141;42.666;23.344;2023-01-26T02:12:49;64974.94;;;-144.03;100.00
3178;BME280;38141;42.666;23.344;2023-01-26T02:15:17;64974.94;;;-144.03;100.00
3178;BME280;38141;42.666;23.344;2023-01-26T02:17:45;64974.94;;;-144.03;100.00
3178;BME280;38141;42.666;23.344;2023-01-26T02:20:19;64974.94;;;-144.03;100.00
3178;BME280;38141;42.666;23.344;2023-01-26T02:23:09;64974.94;;;-144.03;100.00
3178;BME280;38141;42.666;23.344;2023-01-26T02:26:01;64974.94;;;-144.03;100.00
3178;BME280;38141;42.666;23.344;2023-01-26T02:28:31;64974.94;;;-144.03;100.00
3178;BME280;38141;42.666;23.344;2023-01-26T02:31:00;64974.94;;;-144.03;100.00
3178;BME280;38141;42.666;23.344;2023-01-26T02:33:41;64974.94;;;-144.03;100.00
3178;BME280;38141;42.666;23.344;2023-01-26T02:36:17;64974.94;;;-144.03;100.00
3178;BME280;38141;42.666;23.344;2023-01-26T02:38:59;64974.94;;;-144.03;100.00
3178;BME280;38141;42.666;23.344;2023-01-26T02:41:33;64974.94;;;-144.03;100.00
3178;BME280;38141;42.666;23.344;2023-01-26T02:54:31;64974.94;;;-144.03;100.00
3178;BME280;38141;42.666;23.344;2023-01-26T02:57:34;64974.94;;;-144.03;100.00
3178;BME280;38141;42.666;23.344;2023-01-26T03:00:18;64974.94;;;-144.03;100.00
3178;BME280;38141;42.666;23.344;2023-01-26T03:10:04;64974.94;;;-144.03;100.00
3178;BME280;38141;42.666;23.344;2023-01-26T03:12:38;64974.94;;;-144.03;100.00
3178;BME280;38141;42.666;23.344;2023-01-26T03:15:08;64974.94;;;-144.03;100.00
3178;BME280;38141;42.666;23.344;2023-01-26T03:18:00;64974.94;;;-144.03;100.00
3178;BME280;38141;42.666;23.344;2023-01-26T03:21:00;64974.94;;;-144.03;100.00
3178;BME280;38141;42.666;23.344;2023-01-26T03:23:47;64974.94;;;-144.03;100.00
3178;BME280;38141;42.666;23.344;2023-01-26T03:26:33;64974.94;;;-144.03;100.00
3178;BME280;38141;42.666;23.344;2023-01-26T03:29:25;64974.94;;;-144.03;100.00
3178;BME280;38141;42.666;23.344;2023-01-26T03:32:07;64974.94;;;-144.03;100.00
3178;BME280;38141;42.666;23.344;2023-01-26T03:34:34;64974.94;;;-144.03;100.00
3178;BME280;38141;42.666;23.344;2023-01-26T03:37:01;64974.94;;;-144.03;100.00
3178;BME280;38141;42.666;23.344;2023-01-26T03:39:29;64974.94;;;-144.03;100.00
3178;BME280;38141;42.666;23.344;2023-01-26T03:42:17;64974.94;;;-144.03;100.00
3178;BME280;38141;42.666;23.344;2023-01-26T03:45:13;64974.94;;;-144.03;100.00
3178;BME280;38141;42.666;23.344;2023-01-26T03:48:05;64974.94;;;-144.03;100.00
3178;BME280;38141;42.666;23.344;2023-01-26T03:50:51;64974.94;;;-144.03;100.00
3178;BME280;38141;42.666;23.344;2023-01-26T03:53:36;64974.94;;;-144.03;100.00
3178;BME280;38141;42.666;23.344;2023-01-26T03:56:22;64974.94;;;-144.03;100.00
3178;BME280;38141;42.666;23.344;2023-01-26T03:58:51;64974.94;;;-144.03;100.00
3178;BME280;38141;42.666;23.344;2023-01-26T04:01:22;64974.94;;;-144.03;100.00
3178;BME280;38141;42.666;23.344;2023-01-26T04:07:14;64974.94;;;-144.03;100.00
3178;BME280;38141;42.666;23.344;2023-01-26T04:09:58;64974.94;;;-144.03;100.00
3178;BME280;38141;42.666;23.344;2023-01-26T04:12:26;64974.94;;;-144.03;100.00
3178;BME280;38141;42.666;23.344;2023-01-26T04:14:54;64974.94;;;-144.03;100.00
3178;BME280;38141;42.666;23.344;2023-01-26T04:17:42;64974.94;;;-144.03;100.00
3178;BME280;38141;42.666;23.344;2023-01-26T04:20:26;64974.94;;;-144.03;100.00
3178;BME280;38141;42.666;23.344;2023-01-26T04:23:16;64974.94;;;-144.03;100.00
3178;BME280;38141;42.666;23.344;2023-01-26T04:25:44;64974.94;;;-144.03;100.00
3178;BME280;38141;42.666;23.344;2023-01-26T04:28:13;64974.94;;;-144.03;100.00
3178;BME280;38141;42.666;23.344;2023-01-26T04:30:40;64974.94;;;-144.03;100.00
3178;BME280;38141;42.666;23.344;2023-01-26T04:33:10;64974.94;;;-144.03;100.00
3178;BME280;38141;42.666;23.344;2023-01-26T04:35:39;64974.94;;;-144.03;100.00
3178;BME280;38141;42.666;23.344;2023-01-26T04:38:13;64974.94;;;-144.03;100.00
3178;BME280;38141;42.666;23.344;2023-01-26T04:41:00;64974.94;;;-144.03;100.00
3178;BME280;38141;42.666;23.344;2023-01-26T04:43:27;64974.94;;;-144.03;100.00
3178;BME280;38141;42.666;23.344;2023-01-26T04:46:27;64974.94;;;-144.03;100.00
3178;BME280;38141;42.666;23.344;2023-01-26T04:49:11;64974.94;;;-144.03;100.00
3178;BME280;38141;42.666;23.344;2023-01-26T04:51:38;64974.94;;;-144.03;100.00
3178;BME280;38141;42.666;23.344;2023-01-26T04:57:26;64974.94;;;-144.03;100.00
3178;BME280;38141;42.666;23.344;2023-01-26T04:59:54;64974.94;;;-144.03;100.00
3178;BME280;38141;42.666;23.344;2023-01-26T05:02:21;64974.94;;;-144.03;100.00
3178;BME280;38141;42.666;23.344;2023-01-26T05:08:10;64974.94;;;-144.03;100.00
3178;BME280;38141;42.666;23.344;2023-01-26T05:10:37;64974.94;;;-144.03;100.00
3178;BME280;38141;42.666;23.344;2023-01-26T05:13:05;64974.94;;;-144.03;100.00
3178;BME280;38141;42.666;23.344;2023-01-26T05:15:38;64974.94;;;-144.03;100.00
3178;BME280;38141;42.666;23.344;2023-01-26T05:18:11;64974.94;;;-144.03;100.00
3178;BME280;38141;42.666;23.344;2023-01-26T05:20:40;64974.94;;;-144.03;100.00
3178;BME280;38141;42.666;23.344;2023-01-26T05:23:07;64974.94;;;-144.03;100.00
3178;BME280;38141;42.666;23.344;2023-01-26T05:25:36;64974.94;;;-144.03;100.00
3178;BME280;38141;42.666;23.344;2023-01-26T05:28:03;64974.94;;;-144.03;100.00
3178;BME280;38141;42.666;23.344;2023-01-26T05:30:30;64974.94;;;-144.03;100.00
3178;BME280;38141;42.666;23.344;2023-01-26T05:33:00;64974.94;;;-144.03;100.00
3178;BME280;38141;42.666;23.344;2023-01-26T05:35:27;64974.94;;;-144.03;100.00
3178;BME280;38141;42.666;23.344;2023-01-26T05:37:56;64974.94;;;-144.03;100.00
3178;BME280;38141;42.666;23.344;2023-01-26T05:40:27;64974.94;;;-144.03;100.00
3178;BME280;38141;42.666;23.344;2023-01-26T05:43:06;64974.94;;;-144.03;100.00
3178;BME280;38141;42.666;23.344;2023-01-26T05:45:36;64974.94;;;-144.03;100.00
3178;BME280;38141;42.666;23.344;2023-01-26T05:48:03;64974.94;;;-144.03;100.00
3178;BME280;38141;42.666;23.344;2023-01-26T05:50:39;64974.94;;;-144.03;100.00
3178;BME280;38141;42.666;23.344;2023-01-26T05:53:06;64974.94;;;-144.03;100.00
3178;BME280;38141;42.666;23.344;2023-01-26T05:55:36;64974.94;;;-144.03;100.00
3178;BME280;38141;42.666;23.344;2023-01-26T05:58:11;64974.94;;;-144.03;100.00
3178;BME280;38141;42.666;23.344;2023-01-26T06:00:55;64974.94;;;-144.03;100.00
3178;BME280;38141;42.666;23.344;2023-01-26T06:03:22;64974.94;;;-144.03;100.00
3178;BME280;38141;42.666;23.344;2023-01-26T06:05:55;64974.94;;;-144.03;100.00
3178;BME280;38141;42.666;23.344;2023-01-26T06:08:25;64974.94;;;-144.03;100.00
3178;BME280;38141;42.666;23.344;2023-01-26T06:10:57;64974.94;;;-144.03;100.00
3178;BME280;38141;42.666;23.344;2023-01-26T06:13:26;64974.94;;;-144.03;100.00
3178;BME280;38141;42.666;23.344;2023-01-26T06:15:59;64974.94;;;-144.03;100.00
3178;BME280;38141;42.666;23.344;2023-01-26T06:18:29;64974.94;;;-144.03;100.00
3178;BME280;38141;42.666;23.344;2023-01-26T06:20:58;64974.94;;;-144.03;100.00
3178;BME280;38141;42.666;23.344;2023-01-26T06:23:32;64974.94;;;-144.03;100.00
3178;BME280;38141;42.666;23.344;2023-01-26T06:26:00;64974.94;;;-144.03;100.00
3178;BME280;38141;42.666;23.344;2023-01-26T06:28:29;64974.94;;;-144.03;100.00
3178;BME280;38141;42.666;23.344;2023-01-26T06:31:00;64974.94;;;-144.03;100.00
3178;BME280;38141;42.666;23.344;2023-01-26T06:33:28;64974.94;;;-144.03;100.00
3178;BME280;38141;42.666;23.344;2023-01-26T06:36:00;64974.94;;;-144.03;100.00
3178;BME280;38141;42.666;23.344;2023-01-26T06:38:28;64974.94;;;-144.03;100.00
3178;BME280;38141;42.666;23.344;2023-01-26T06:40:58;64974.94;;;-144.03;100.00
3178;BME280;38141;42.666;23.344;2023-01-26T06:43:32;64974.94;;;-144.03;100.00
3178;BME280;38141;42.666;23.344;2023-01-26T06:46:00;64974.94;;;-144.03;100.00
3178;BME280;38141;42.666;23.344;2023-01-26T06:48:31;64974.94;;;-144.03;100.00
3178;BME280;38141;42.666;23.344;2023-01-26T06:51:04;64974.94;;;-144.03;100.00
3178;BME280;38141;42.666;23.344;2023-01-26T06:53:33;64974.94;;;-144.03;100.00
3178;BME280;38141;42.666;23.344;2023-01-26T06:56:07;64974.94;;;-144.03;100.00
3178;BME280;38141;42.666;23.344;2023-01-26T06:58:37;64974.94;;;-144.03;100.00
3178;BME280;38141;42.666;23.344;2023-01-26T07:01:04;64974.94;;;-144.03;100.00
3178;BME280;38141;42.666;23.344;2023-01-26T07:03:39;64974.94;;;-144.03;100.00
3178;BME280;38141;42.666;23.344;2023-01-26T07:06:06;64974.94;;;-144.03;100.00
3178;BME280;38141;42.666;23.344;2023-01-26T07:08:36;64974.94;;;-144.03;100.00
3178;BME280;38141;42.666;23.344;2023-01-26T07:11:06;64974.94;;;-144.03;100.00
3178;BME280;38141;42.666;23.344;2023-01-26T07:13:33;64974.94;;;-144.03;100.00
3178;BME280;38141;42.666;23.344;2023-01-26T07:16:03;64974.94;;;-144.03;100.00
3178;BME280;38141;42.666;23.344;2023-01-26T07:18:33;64974.94;;;-144.03;100.00
3178;BME280;38141;42.666;23.344;2023-01-26T07:21:02;64974.94;;;-144.03;100.00
3178;BME280;38141;42.666;23.344;2023-01-26T07:23:31;64974.94;;;-144.03;100.00
3178;BME280;38141;42.666;23.344;2023-01-26T07:26:02;64974.94;;;-144.03;100.00
3178;BME280;38141;42.666;23.344;2023-01-26T07:28:31;64974.94;;;-144.03;100.00
3178;BME280;38141;42.666;23.344;2023-01-26T07:31:04;64974.94;;;-144.03;100.00
3178;BME280;38141;42.666;23.344;2023-01-26T07:33:33;64974.94;;;-144.03;100.00
3178;BME280;38141;42.666;23.344;2023-01-26T07:36:00;64974.94;;;-144.03;100.00
3178;BME280;38141;42.666;23.344;2023-01-26T07:38:28;64974.94;;;-144.03;100.00
3178;BME280;38141;42.666;23.344;2023-01-26T07:40:56;64974.94;;;-144.03;100.00
3178;BME280;38141;42.666;23.344;2023-01-26T07:43:22;64974.94;;;-144.03;100.00
3178;BME280;38141;42.666;23.344;2023-01-26T07:45:51;64974.94;;;-144.03;100.00
3178;BME280;38141;42.666;23.344;2023-01-26T07:48:22;64974.94;;;-144.03;100.00
3178;BME280;38141;42.666;23.344;2023-01-26T07:50:49;64974.94;;;-144.03;100.00
3178;BME280;38141;42.666;23.344;2023-01-26T07:53:17;64974.94;;;-144.03;100.00
3178;BME280;38141;42.666;23.344;2023-01-26T07:55:45;64974.94;;;-144.03;100.00
3178;BME280;38141;42.666;23.344;2023-01-26T07:58:12;64974.94;;;-144.03;100.00
3178;BME280;38141;42.666;23.344;2023-01-26T08:00:39;64974.94;;;-144.03;100.00
3178;BME280;38141;42.666;23.344;2023-01-26T08:03:06;64974.94;;;-144.03;100.00
3178;BME280;38141;42.666;23.344;2023-01-26T08:05:37;64974.94;;;-144.03;100.00
3178;BME280;38141;42.666;23.344;2023-01-26T08:08:04;64974.94;;;-144.03;100.00
3178;BME280;38141;42.666;23.344;2023-01-26T08:10:31;64974.94;;;-144.03;100.00
3178;BME280;38141;42.666;23.344;2023-01-26T08:12:58;64974.94;;;-144.03;100.00
3178;BME280;38141;42.666;23.344;2023-01-26T08:15:26;64974.94;;;-144.03;100.00
3178;BME280;38141;42.666;23.344;2023-01-26T08:17:53;64974.94;;;-144.03;100.00
3178;BME280;38141;42.666;23.344;2023-01-26T08:20:19;64974.94;;;-144.03;100.00
3178;BME280;38141;42.666;23.344;2023-01-26T08:22:47;64974.94;;;-144.03;100.00
3178;BME280;38141;42.666;23.344;2023-01-26T08:25:14;64974.94;;;-144.03;100.00
3178;BME280;38141;42.666;23.344;2023-01-26T08:27:41;64974.94;;;-144.03;100.00
3178;BME280;38141;42.666;23.344;2023-01-26T08:30:09;64974.94;;;-144.03;100.00
3178;BME280;38141;42.666;23.344;2023-01-26T08:32:36;64974.94;;;-144.03;100.00
3178;BME280;38141;42.666;23.344;2023-01-26T08:35:03;64974.94;;;-144.03;100.00
3178;BME280;38141;42.666;23.344;2023-01-26T08:37:30;64974.94;;;-144.03;100.00
3178;BME280;38141;42.666;23.344;2023-01-26T08:39:58;64974.94;;;-144.03;100.00
3178;BME280;38141;42.666;23.344;2023-01-26T08:42:26;64974.94;;;-144.03;100.00
3178;BME280;38141;42.666;23.344;2023-01-26T08:44:53;64974.94;;;-144.03;100.00
3178;BME280;38141;42.666;23.344;2023-01-26T08:47:20;64974.94;;;-144.03;100.00
3178;BME280;38141;42.666;23.344;2023-01-26T08:49:46;64974.94;;;-144.03;100.00
3178;BME280;38141;42.666;23.344;2023-01-26T08:52:13;64974.94;;;-144.03;100.00
3178;BME280;38141;42.666;23.344;2023-01-26T08:54:41;64974.94;;;-144.03;100.00
3178;BME280;38141;42.666;23.344;2023-01-26T08:57:09;64974.94;;;-144.03;100.00
3178;BME280;38141;42.666;23.344;2023-01-26T08:59:55;64974.94;;;-144.03;100.00
3178;BME280;38141;42.666;23.344;2023-01-26T09:02:21;64974.94;;;-144.03;100.00
3178;BME280;38141;42.666;23.344;2023-01-26T09:04:48;64974.94;;;-144.03;100.00
3178;BME280;38141;42.666;23.344;2023-01-26T09:07:15;64974.94;;;-144.03;100.00
3178;BME280;38141;42.666;23.344;2023-01-26T09:09:42;64974.94;;;-144.03;100.00
3178;BME280;38141;42.666;23.344;2023-01-26T09:12:12;64974.94;;;-144.03;100.00
3178;BME280;38141;42.666;23.344;2023-01-26T09:14:39;64974.94;;;-144.03;100.00
3178;BME280;38141;42.666;23.344;2023-01-26T09:17:06;64974.94;;;-144.03;100.00
3178;BME280;38141;42.666;23.344;2023-01-26T09:19:33;64974.94;;;-144.03;100.00
3178;BME280;38141;42.666;23.344;2023-01-26T09:22:00;64974.94;;;-144.03;100.00
3178;BME280;38141;42.666;23.344;2023-01-26T09:24:26;64974.94;;;-144.03;100.00
3178;BME280;38141;42.666;23.344;2023-01-26T09:26:53;64974.94;;;-144.03;100.00
3178;BME280;38141;42.666;23.344;2023-01-26T09:29:21;64974.94;;;-144.03;100.00
3178;BME280;38141;42.666;23.344;2023-01-26T09:31:48;64974.94;;;-144.03;100.00
3178;BME280;38141;42.666;23.344;2023-01-26T09:34:15;64974.94;;;-144.03;100.00
3178;BME280;38141;42.666;23.344;2023-01-26T09:36:44;64974.94;;;-144.03;100.00
3178;BME280;38141;42.666;23.344;2023-01-26T09:39:10;64974.94;;;-144.03;100.00
3178;BME280;38141;42.666;23.344;2023-01-26T09:41:48;64974.94;;;-144.03;100.00
3178;BME280;38141;42.666;23.344;2023-01-26T09:44:19;64974.94;;;-144.03;100.00
3178;BME280;38141;42.666;23.344;2023-01-26T09:46:57;64974.94;;;-144.03;100.00
3178;BME280;38141;42.666;23.344;2023-01-26T09:49:29;94744.19;;;1.33;100.00
3178;BME280;38141;42.666;23.344;2023-01-26T09:52:04;94738.75;;;1.29;100.00
3178;BME280;38141;42.666;23.344;2023-01-26T09:54:36;94706.75;;;1.00;100.00
3178;BME280;38141;42.666;23.344;2023-01-26T09:57:11;94717.28;;;1.26;100.00
3178;BME280;38141;42.666;23.344;2023-01-26T09:59:44;94719.13;;;1.34;100.00
3178;BME280;38141;42.666;23.344;2023-01-26T10:02:28;94708.22;;;1.18;100.00
3178;BME280;38141;42.666;23.344;2023-01-26T10:05:03;94723.00;;;1.37;100.00
3178;BME280;38141;42.666;23.344;2023-01-26T10:07:32;94708.22;;;1.48;100.00
3178;BME280;38141;42.666;23.344;2023-01-26T10:09:59;94707.97;;;1.61;100.00
3178;BME280;38141;42.666;23.344;2023-01-26T10:12:30;94716.59;;;1.79;100.00
3178;BME280;38141;42.666;23.344;2023-01-26T10:15:02;94718.69;;;1.53;100.00
3178;BME280;38141;42.666;23.344;2023-01-26T10:17:34;94705.03;;;1.54;100.00
3178;BME280;38141;42.666;23.344;2023-01-26T10:20:06;94708.56;;;1.67;100.00
3178;BME280;38141;42.666;23.344;2023-01-26T10:22:41;94694.81;;;1.56;100.00
3178;BME280;38141;42.666;23.344;2023-01-26T10:25:14;94684.16;;;1.56;100.00
3178;BME280;38141;42.666;23.344;2023-01-26T10:27:42;94674.84;;;1.42;100.00
3178;BME280;38141;42.666;23.344;2023-01-26T10:30:12;94670.97;;;1.60;100.00
3178;BME280;38141;42.666;23.344;2023-01-26T10:32:42;94669.78;;;1.69;100.00
3178;BME280;38141;42.666;23.344;2023-01-26T10:35:15;94665.56;;;1.68;100.00
3178;BME280;38141;42.666;23.344;2023-01-26T10:37:43;94666.53;;;1.85;100.00
3178;BME280;38141;42.666;23.344;2023-01-26T10:40:10;94655.47;;;1.74;100.00
3178;BME280;38141;42.666;23.344;2023-01-26T10:42:38;94643.22;;;1.94;100.00
3178;BME280;38141;42.666;23.344;2023-01-26T10:45:22;94643.22;;;1.94;100.00
3178;BME280;38141;42.666;23.344;2023-01-26T10:48:04;94633.13;;;1.99;100.00
3178;BME280;38141;42.666;23.344;2023-01-26T10:50:31;94617.22;;;1.91;100.00
3178;BME280;38141;42.666;23.344;2023-01-26T10:52:59;94614.22;;;1.92;100.00
3178;BME280;38141;42.666;23.344;2023-01-26T10:55:27;94633.56;;;1.68;100.00
3178;BME280;38141;42.666;23.344;2023-01-26T10:57:54;94607.84;;;1.72;100.00
3178;BME280;38141;42.666;23.344;2023-01-26T11:00:24;94600.75;;;1.89;100.00
3178;BME280;38141;42.666;23.344;2023-01-26T11:02:54;94579.31;;;1.97;100.00
3178;BME280;38141;42.666;23.344;2023-01-26T11:05:26;94561.72;;;1.72;100.00
3178;BME280;38141;42.666;23.344;2023-01-26T11:07:54;94588.81;;;1.74;100.00
3178;BME280;38141;42.666;23.344;2023-01-26T11:10:32;94576.56;;;1.94;100.00
3178;BME280;38141;42.666;23.344;2023-01-26T11:13:13;94571.66;;;1.96;100.00
3178;BME280;38141;42.666;23.344;2023-01-26T11:15:43;94529.53;;;1.89;100.00
3178;BME280;38141;42.666;23.344;2023-01-26T11:18:39;94552.13;;;2.16;100.00
3178;BME280;38141;42.666;23.344;2023-01-26T11:21:12;94543.66;;;2.02;100.00
3178;BME280;38141;42.666;23.344;2023-01-26T11:23:50;94540.66;;;2.03;100.00
3178;BME280;38141;42.666;23.344;2023-01-26T11:26:55;94508.06;;;1.73;100.00
3178;BME280;38141;42.666;23.344;2023-01-26T11:29:51;94500.97;;;2.02;100.00
3178;BME280;38141;42.666;23.344;2023-01-26T11:32:29;94528.00;;;2.37;100.00
3178;BME280;38141;42.666;23.344;2023-01-26T11:35:10;94516.97;;;1.90;100.00
3178;BME280;38141;42.666;23.344;2023-01-26T11:37:43;94519.53;;;1.98;100.00
3178;BME280;38141;42.666;23.344;2023-01-26T11:40:29;94504.53;;;1.94;100.00
3178;BME280;38141;42.666;23.344;2023-01-26T11:43:19;94487.09;;;1.96;100.00
3178;BME280;38141;42.666;23.344;2023-01-26T11:46:06;94484.53;;;2.12;100.00
3178;BME280;38141;42.666;23.344;2023-01-26T11:48:48;94498.56;;;2.21;100.00
3178;BME280;38141;42.666;23.344;2023-01-26T11:51:26;94511.22;;;2.36;100.00
3178;BME280;38141;42.666;23.344;2023-01-26T11:54:12;94494.09;;;2.25;100.00
3178;BME280;38141;42.666;23.344;2023-01-26T11:56:47;94523.56;;;2.41;100.00
3178;BME280;38141;42.666;23.344;2023-01-26T11:59:18;94489.31;;;2.31;100.00
3178;BME280;38141;42.666;23.344;2023-01-26T12:01:50;94470.97;;;2.17;100.00
3178;BME280;38141;42.666;23.344;2023-01-26T12:04:21;94499.91;;;2.27;100.00
3178;BME280;38141;42.666;23.344;2023-01-26T12:06:51;94511.31;;;2.28;100.00
3178;BME280;38141;42.666;23.344;2023-01-26T12:09:25;94485.97;;;2.34;100.00
3178;BME280;38141;42.666;23.344;2023-01-26T12:12:01;94473.97;;;2.03;100.00
3178;BME280;38141;42.666;23.344;2023-01-26T12:14:35;94509.91;;;2.18;100.00
3178;BME280;38141;42.666;23.344;2023-01-26T12:17:26;94430.97;;;1.81;100.00
3178;BME280;38141;42.666;23.344;2023-01-26T12:20:00;94474.41;;;2.30;100.00
3178;BME280;38141;42.666;23.344;2023-01-26T12:22:32;94458.72;;;2.28;100.00
3178;BME280;38141;42.666;23.344;2023-01-26T12:25:13;94460.75;;;2.31;100.00
3178;BME280;38141;42.666;23.344;2023-01-26T12:27:48;94422.59;;;2.31;100.00
3178;BME280;38141;42.666;23.344;2023-01-26T12:30:31;94433.38;;;2.34;100.00
3178;BME280;38141;42.666;23.344;2023-01-26T12:32:59;94431.94;;;2.24;100.00
3178;BME280;38141;42.666;23.344;2023-01-26T12:35:35;94474.53;;;2.21;100.00
3178;BME280;38141;42.666;23.344;2023-01-26T12:38:13;94436.28;;;2.05;100.00
3178;BME280;38141;42.666;23.344;2023-01-26T12:40:50;94435.38;;;2.37;100.00
3178;BME280;38141;42.666;23.344;2023-01-26T12:43:35;94425.38;;;2.34;100.00
3178;BME280;38141;42.666;23.344;2023-01-26T12:46:05;94398.16;;;2.16;100.00
3178;BME280;38141;42.666;23.344;2023-01-26T12:48:39;94437.16;;;2.45;100.00
3178;BME280;38141;42.666;23.344;2023-01-26T12:51:09;94451.72;;;2.23;100.00
3178;BME280;38141;42.666;23.344;2023-01-26T12:53:51;94434.28;;;2.14;100.00
3178;BME280;38141;42.666;23.344;2023-01-26T12:56:23;94431.72;;;2.05;100.00
3178;BME280;38141;42.666;23.344;2023-01-26T12:58:53;94438.53;;;2.03;100.00
3178;BME280;38141;42.666;23.344;2023-01-26T13:01:23;94423.94;;;2.00;100.00
3178;BME280;38141;42.666;23.344;2023-01-26T13:03:53;94368.19;;;1.83;100.00
3178;BME280;38141;42.666;23.344;2023-01-26T13:06:22;94395.50;;;1.92;100.00
3178;BME280;38141;42.666;23.344;2023-01-26T13:09:01;94407.94;;;2.00;100.00
3178;BME280;38141;42.666;23.344;2023-01-26T13:11:49;94432.16;;;2.19;100.00
3178;BME280;38141;42.666;23.344;2023-01-26T13:14:38;94440.09;;;2.04;100.00
3178;BME280;38141;42.666;23.344;2023-01-26T13:17:57;94429.41;;;2.16;100.00
3178;BME280;38141;42.666;23.344;2023-01-26T13:23:38;94418.94;;;2.11;100.00
3178;BME280;38141;42.666;23.344;2023-01-26T13:29:33;94425.97;;;1.91;100.00
3178;BME280;38141;42.666;23.344;2023-01-26T13:35:25;94407.31;;;1.79;100.00
3178;BME280;38141;42.666;23.344;2023-01-26T13:37:58;94417.31;;;1.94;100.00
3178;BME280;38141;42.666;23.344;2023-01-26T13:40:30;94383.19;;;1.75;100.00
3178;BME280;38141;42.666;23.344;2023-01-26T13:43:02;94381.31;;;1.76;100.00
3178;BME280;38141;42.666;23.344;2023-01-26T13:45:36;94385.06;;;1.87;100.00
3178;BME280;38141;42.666;23.344;2023-01-26T13:48:11;94392.44;;;1.90;100.00
3178;BME280;38141;42.666;23.344;2023-01-26T13:50:41;94369.44;;;1.61;100.00
3178;BME280;38141;42.666;23.344;2023-01-26T13:53:33;94396.63;;;1.91;100.00
3178;BME280;38141;42.666;23.344;2023-01-26T13:56:02;94403.97;;;1.94;100.00
3178;BME280;38141;42.666;23.344;2023-01-26T13:58:30;94311.34;;;1.30;100.00
3178;BME280;38141;42.666;23.344;2023-01-26T14:00:58;94353.53;;;1.65;100.00
3178;BME280;38141;42.666;23.344;2023-01-26T14:03:28;94370.97;;;1.99;100.00
3178;BME280;38141;42.666;23.344;2023-01-26T14:06:00;94329.84;;;1.88;100.00
3178;BME280;38141;42.666;23.344;2023-01-26T14:08:30;94356.69;;;2.19;100.00